Terminal Aerodrome Forecast
Issued by NWS Charleston, SC

Home | Current Version | Previous Version | Text Only | Print | Product List | Glossary On
Versions: 1 2 3 4 5 6 7 8 9 10 11 12 13 14
489
FTUS42 KCHS 231735
TAFSAV
TAF
KSAV 231735Z 2318/2418 08013G23KT P6SM OVC080
     FM232330 08009KT P6SM BKN080
     FM240400 05004KT P6SM SCT080
     FM241500 12010KT P6SM SCT045=

USA.gov is the U.S. government's official web portal to all federal, state and local government web resources and services.